createdAt,value
2023-04-06T00:01:52.743Z,11.10
2023-04-06T00:04:19.237Z,8.55
2023-04-06T00:06:45.627Z,8.05
2023-04-06T00:09:11.990Z,8.80
2023-04-06T00:11:38.429Z,8.43
2023-04-06T00:14:05.230Z,7.35
2023-04-06T00:16:31.724Z,12.48
2023-04-06T00:18:58.174Z,8.57
2023-04-06T00:21:24.855Z,9.20
2023-04-06T00:23:51.547Z,8.18
2023-04-06T00:26:18.011Z,8.07
2023-04-06T00:28:44.383Z,8.45
2023-04-06T00:31:10.835Z,8.70
2023-04-06T00:33:37.320Z,9.77
2023-04-06T00:36:04.109Z,11.80
2023-04-06T00:38:30.566Z,10.15
2023-04-06T00:40:57.022Z,7.40
2023-04-06T00:43:23.495Z,13.45
2023-04-06T00:45:50.170Z,11.13
2023-04-06T00:48:17.602Z,7.53
2023-04-06T00:50:44.153Z,8.35
2023-04-06T00:53:10.652Z,8.98
2023-04-06T00:55:37.141Z,7.63
2023-04-06T00:58:04.785Z,9.40
2023-04-06T01:00:31.507Z,8.30
2023-04-06T01:02:58.012Z,12.35
2023-04-06T01:05:24.502Z,10.63
2023-04-06T01:07:50.909Z,10.38
2023-04-06T01:10:27.655Z,10.95
2023-04-06T01:12:54.046Z,11.32
2023-04-06T01:15:21.897Z,8.48
2023-04-06T01:17:48.297Z,9.45
2023-04-06T01:20:15.284Z,10.88
2023-04-06T01:22:41.739Z,9.05
2023-04-06T01:25:09.082Z,11.18
2023-04-06T01:27:35.533Z,9.73
2023-04-06T01:30:02.048Z,9.82
2023-04-06T01:32:28.473Z,10.05
2023-04-06T01:34:55.758Z,9.63
2023-04-06T01:37:22.203Z,11.05
2023-04-06T01:39:48.693Z,10.43
2023-04-06T01:42:15.059Z,9.52
2023-04-06T01:44:41.577Z,10.30
2023-04-06T01:47:07.942Z,11.68
2023-04-06T01:49:34.754Z,10.63
2023-04-06T01:52:01.109Z,8.88
2023-04-06T01:54:27.566Z,11.20
2023-04-06T01:56:53.986Z,8.50
2023-04-06T01:59:20.393Z,9.40
2023-04-06T02:01:46.868Z,9.73
2023-04-06T02:04:14.512Z,8.82
2023-04-06T02:06:41.185Z,7.03
2023-04-06T02:09:07.998Z,9.13
2023-04-06T02:11:34.661Z,9.25
2023-04-06T02:14:01.905Z,11.35
2023-04-06T02:16:28.406Z,11.18
2023-04-06T02:18:54.837Z,11.05
2023-04-06T02:21:21.413Z,8.85
2023-04-06T02:23:48.436Z,9.55
2023-04-06T02:26:14.918Z,9.60
2023-04-06T02:28:41.483Z,12.68
2023-04-06T02:31:08.779Z,12.00
2023-04-06T02:33:35.202Z,10.45
2023-04-06T02:36:01.638Z,9.52
2023-04-06T02:38:28.008Z,9.38
2023-04-06T02:40:54.366Z,10.63
2023-04-06T02:43:20.790Z,9.20
2023-04-06T02:45:47.228Z,11.50
2023-04-06T02:48:13.670Z,11.70
2023-04-06T02:50:40.376Z,9.60
2023-04-06T02:53:07.286Z,10.25
2023-04-06T02:55:33.842Z,11.10
2023-04-06T02:58:00.464Z,11.43
2023-04-06T03:00:27.221Z,11.05
2023-04-06T03:02:53.714Z,9.95
2023-04-06T03:05:20.202Z,12.77
2023-04-06T03:07:46.578Z,8.95
2023-04-06T03:10:12.993Z,11.88
2023-04-06T03:12:39.351Z,15.48
2023-04-06T03:15:06.103Z,11.25
2023-04-06T03:17:32.524Z,9.68
2023-04-06T03:19:58.900Z,12.77
2023-04-06T03:22:25.555Z,10.90
2023-04-06T03:24:51.892Z,13.85
2023-04-06T03:27:18.278Z,9.50
2023-04-06T03:29:44.653Z,13.18
2023-04-06T03:32:11.354Z,10.10
2023-04-06T03:34:38.561Z,11.95
2023-04-06T03:37:10.422Z,10.55
2023-04-06T03:39:37.636Z,11.20
2023-04-06T03:42:04.233Z,10.77
2023-04-06T03:44:30.712Z,11.13
2023-04-06T03:46:57.161Z,11.15
2023-04-06T03:49:23.649Z,11.75
2023-04-06T03:51:50.261Z,11.93
2023-04-06T03:54:16.681Z,12.55
2023-04-06T03:56:43.168Z,9.48
2023-04-06T03:59:09.978Z,13.25
2023-04-06T04:01:36.784Z,12.60
2023-04-06T04:04:03.357Z,9.23
2023-04-06T04:06:29.785Z,10.93
2023-04-06T04:08:56.172Z,12.77
2023-04-06T04:11:22.606Z,12.25
2023-04-06T04:13:48.962Z,12.07
2023-04-06T04:16:15.357Z,10.13
2023-04-06T04:18:44.387Z,9.77
2023-04-06T04:21:10.907Z,11.68
2023-04-06T04:23:37.579Z,11.30
2023-04-06T04:26:04.145Z,14.10
2023-04-06T04:28:30.853Z,13.82
2023-04-06T04:30:57.309Z,27.42
2023-04-06T04:33:23.892Z,13.63
2023-04-06T04:35:50.432Z,9.75
2023-04-06T04:38:16.883Z,13.85
2023-04-06T04:40:43.282Z,64.95
2023-04-06T04:43:09.756Z,12.20
2023-04-06T04:45:36.357Z,14.23
2023-04-06T04:48:03.005Z,14.18
2023-04-06T04:50:29.501Z,12.25
2023-04-06T04:52:55.954Z,10.63
2023-04-06T04:55:22.397Z,14.20
2023-04-06T04:57:48.877Z,11.25
2023-04-06T05:00:15.845Z,13.45
2023-04-06T05:02:42.424Z,12.98
2023-04-06T05:05:09.515Z,10.45
2023-04-06T05:07:35.967Z,12.48
2023-04-06T05:10:02.420Z,11.40
2023-04-06T05:12:28.906Z,14.45
2023-04-06T05:14:55.677Z,16.13
2023-04-06T05:17:22.183Z,14.18
2023-04-06T05:19:48.683Z,13.88
2023-04-06T05:22:17.109Z,15.98
2023-04-06T05:24:43.721Z,9.93
2023-04-06T05:27:10.713Z,13.80
2023-04-06T05:29:37.213Z,9.80
2023-04-06T05:32:03.728Z,15.35
2023-04-06T05:34:30.260Z,12.85
2023-04-06T05:36:56.850Z,25.23
2023-04-06T05:39:23.325Z,14.93
2023-04-06T05:41:50.482Z,11.10
2023-04-06T05:44:17.075Z,16.15
2023-04-06T05:46:43.591Z,18.60
2023-04-06T05:49:10.167Z,16.42
2023-04-06T05:51:36.739Z,10.45
2023-04-06T05:54:03.342Z,13.35
2023-04-06T05:56:31.160Z,12.80
2023-04-06T05:58:57.607Z,17.40
2023-04-06T06:01:24.044Z,14.38
2023-04-06T06:03:50.503Z,9.98
2023-04-06T06:06:16.896Z,11.93
2023-04-06T06:08:43.318Z,13.27
2023-04-06T06:11:09.876Z,9.32
2023-04-06T06:13:36.260Z,10.95
2023-04-06T06:16:06.054Z,19.25
2023-04-06T06:18:33.221Z,15.02
2023-04-06T06:20:59.781Z,11.77
2023-04-06T06:23:26.312Z,12.98
2023-04-06T06:25:52.779Z,16.33
2023-04-06T06:28:19.294Z,14.70
2023-04-06T06:30:45.730Z,14.50
2023-04-06T06:33:12.120Z,10.32
2023-04-06T06:35:38.496Z,16.30
2023-04-06T06:38:04.948Z,16.58
2023-04-06T06:40:31.421Z,20.23
2023-04-06T06:42:57.915Z,16.17
2023-04-06T06:45:26.310Z,13.15
2023-04-06T06:47:55.155Z,17.98
2023-04-06T06:50:22.202Z,16.70
2023-04-06T06:52:48.644Z,23.90
2023-04-06T06:55:16.224Z,14.85
2023-04-06T06:57:43.379Z,19.35
2023-04-06T07:00:13.144Z,14.88
2023-04-06T07:02:40.910Z,15.30
2023-04-06T07:05:26.172Z,16.83
2023-04-06T07:07:54.491Z,15.65
2023-04-06T07:10:21.293Z,20.40
2023-04-06T07:12:47.756Z,17.63
2023-04-06T07:15:14.373Z,17.25
2023-04-06T07:17:42.435Z,14.73
2023-04-06T07:20:09.466Z,19.73
2023-04-06T07:22:35.884Z,18.55
2023-04-06T07:25:02.283Z,17.13
2023-04-06T07:27:28.661Z,18.33
2023-04-06T07:29:55.212Z,17.08
2023-04-06T07:32:21.577Z,21.38
2023-04-06T07:34:48.019Z,21.02
2023-04-06T07:37:14.411Z,21.08
2023-04-06T07:39:41.260Z,16.77
2023-04-06T07:42:07.829Z,18.25
2023-04-06T07:44:34.200Z,15.77
2023-04-06T07:47:01.150Z,20.88
2023-04-06T07:49:27.750Z,19.02
2023-04-06T07:51:54.820Z,12.10
2023-04-06T07:54:21.660Z,18.33
2023-04-06T07:56:48.041Z,18.38
2023-04-06T07:59:14.676Z,15.45
2023-04-06T08:01:41.213Z,15.40
2023-04-06T08:04:08.111Z,17.85
2023-04-06T08:06:35.810Z,18.67
2023-04-06T08:09:02.163Z,14.05
2023-04-06T08:11:28.677Z,19.00
2023-04-06T08:13:57.734Z,18.80
2023-04-06T08:16:25.000Z,17.63
2023-04-06T08:18:51.473Z,16.92
2023-04-06T08:21:17.870Z,19.48
2023-04-06T08:23:44.358Z,15.50
2023-04-06T08:26:10.863Z,26.63
2023-04-06T08:28:37.430Z,18.55
2023-04-06T08:31:07.762Z,17.88
2023-04-06T08:33:39.935Z,19.63
2023-04-06T08:36:13.876Z,18.30
2023-04-06T08:38:40.941Z,21.63
2023-04-06T08:41:14.809Z,18.67
2023-04-06T08:43:49.873Z,21.30
2023-04-06T08:46:16.539Z,19.55
2023-04-06T08:48:44.289Z,14.38
2023-04-06T08:51:11.058Z,16.98
2023-04-06T08:53:38.503Z,16.38
2023-04-06T08:56:06.002Z,18.45
2023-04-06T08:58:38.801Z,24.83
2023-04-06T09:01:12.433Z,18.98
2023-04-06T09:03:41.067Z,18.45
2023-04-06T09:06:08.898Z,18.45
2023-04-06T09:08:36.228Z,18.65
2023-04-06T09:11:04.064Z,20.60
2023-04-06T09:13:30.921Z,22.25
2023-04-06T09:16:05.021Z,17.50
2023-04-06T09:18:35.136Z,13.57
2023-04-06T09:21:03.832Z,16.95
2023-04-06T09:23:30.597Z,15.73
2023-04-06T09:26:16.455Z,17.83
2023-04-06T09:28:47.345Z,17.27
2023-04-06T09:31:15.736Z,14.88
2023-04-06T09:33:46.173Z,17.83
2023-04-06T09:36:13.155Z,14.37
2023-04-06T09:38:55.764Z,17.08
2023-04-06T09:41:27.046Z,18.52
2023-04-06T09:44:03.578Z,18.10
2023-04-06T09:46:43.001Z,17.63
2023-04-06T09:49:19.305Z,17.92
2023-04-06T09:51:50.452Z,18.98
2023-04-06T09:56:53.399Z,17.77
2023-04-06T09:59:31.586Z,17.23
2023-04-06T10:02:00.682Z,17.98
2023-04-06T10:04:44.080Z,15.95
2023-04-06T10:07:12.817Z,12.75
2023-04-06T10:09:39.447Z,15.43
2023-04-06T10:12:06.698Z,17.65
2023-04-06T10:14:37.878Z,21.95
2023-04-06T10:19:56.459Z,20.45
2023-04-06T10:22:35.003Z,17.67
2023-04-06T10:25:01.464Z,19.30
2023-04-06T10:27:31.634Z,13.77
2023-04-06T10:30:06.441Z,16.25
2023-04-06T10:32:37.352Z,16.45
2023-04-06T10:35:10.691Z,17.40
2023-04-06T10:38:03.129Z,16.50
2023-04-06T10:40:29.596Z,19.15
2023-04-06T10:43:07.336Z,16.70
2023-04-06T10:45:34.205Z,16.75
2023-04-06T10:48:00.837Z,17.02
2023-04-06T10:50:30.434Z,16.52
2023-04-06T10:53:03.861Z,16.23
2023-04-06T10:55:30.539Z,18.95
2023-04-06T10:57:56.997Z,21.40
2023-04-06T11:00:23.795Z,18.80
2023-04-06T11:02:50.398Z,16.27
2023-04-06T11:05:17.033Z,18.13
2023-04-06T11:07:43.466Z,17.38
2023-04-06T11:10:16.584Z,17.08
2023-04-06T11:12:44.072Z,14.57
2023-04-06T11:15:10.771Z,14.73
2023-04-06T11:17:37.971Z,15.63
2023-04-06T11:20:05.725Z,9.90
2023-04-06T11:22:32.338Z,13.57
2023-04-06T11:27:37.097Z,12.50
2023-04-06T11:30:04.008Z,12.30
2023-04-06T11:32:30.533Z,14.20
2023-04-06T11:34:58.879Z,14.73
2023-04-06T11:37:28.513Z,12.88
2023-04-06T11:39:57.877Z,12.75
2023-04-06T11:42:30.984Z,15.52
2023-04-06T11:44:58.727Z,14.55
2023-04-06T11:47:34.232Z,13.55
2023-04-06T11:50:14.906Z,14.45
2023-04-06T11:52:42.467Z,11.45
2023-04-06T11:55:16.596Z,13.93
2023-04-06T11:57:43.615Z,10.35
2023-04-06T12:00:11.028Z,12.10
2023-04-06T12:02:38.368Z,13.85
2023-04-06T12:05:06.159Z,9.75
2023-04-06T12:07:33.418Z,10.68
2023-04-06T12:10:01.821Z,15.32
2023-04-06T12:12:28.163Z,15.05
2023-04-06T12:14:54.484Z,16.08
2023-04-06T12:17:21.312Z,11.45
2023-04-06T12:19:47.832Z,10.75
2023-04-06T12:22:15.265Z,8.68
2023-04-06T12:24:41.646Z,10.88
2023-04-06T12:27:10.893Z,11.20
2023-04-06T12:29:37.937Z,9.75
2023-04-06T12:32:04.446Z,15.27
2023-04-06T12:34:31.054Z,10.38
2023-04-06T12:36:57.935Z,9.05
2023-04-06T12:39:24.754Z,9.00
2023-04-06T12:41:51.280Z,11.15
2023-04-06T12:44:17.686Z,9.57
2023-04-06T12:46:44.191Z,11.70
2023-04-06T12:49:10.947Z,8.75
2023-04-06T12:51:37.334Z,9.07
2023-04-06T12:54:03.821Z,8.57
2023-04-06T12:56:30.654Z,8.18
2023-04-06T12:58:57.248Z,5.38
2023-04-06T13:01:23.825Z,8.80
2023-04-06T13:03:50.710Z,8.82
2023-04-06T13:06:17.064Z,5.85
2023-04-06T13:08:44.139Z,7.93
2023-04-06T13:11:11.096Z,8.88
2023-04-06T13:13:38.405Z,7.70
2023-04-06T13:16:08.200Z,7.60
2023-04-06T13:18:35.626Z,8.82
2023-04-06T13:21:02.048Z,7.60
2023-04-06T13:23:28.491Z,8.80
2023-04-06T13:26:06.316Z,9.30
2023-04-06T13:28:34.375Z,9.38
2023-04-06T13:31:02.419Z,6.97
2023-04-06T13:33:29.858Z,8.07
2023-04-06T13:35:56.675Z,10.23
2023-04-06T13:38:24.977Z,7.60
2023-04-06T13:40:51.766Z,10.13
2023-04-06T13:43:20.386Z,10.15
2023-04-06T13:45:55.907Z,8.25
2023-04-06T13:48:22.553Z,9.95
2023-04-06T13:50:49.237Z,8.95
2023-04-06T13:53:15.882Z,8.75
2023-04-06T13:55:42.318Z,8.80
2023-04-06T13:58:08.931Z,8.55
2023-04-06T14:00:36.565Z,9.77
2023-04-06T14:03:03.223Z,9.93
2023-04-06T14:05:33.648Z,9.90
2023-04-06T14:08:00.259Z,10.93
2023-04-06T14:10:28.340Z,8.80
2023-04-06T14:12:55.046Z,6.57
2023-04-06T14:15:22.803Z,11.57
2023-04-06T14:17:49.596Z,9.73
2023-04-06T14:20:16.203Z,8.90
2023-04-06T14:22:43.669Z,10.15
2023-04-06T14:25:12.087Z,10.90
2023-04-06T14:27:38.677Z,11.52
2023-04-06T14:30:05.478Z,10.50
2023-04-06T14:32:31.910Z,9.73
2023-04-06T14:34:58.379Z,9.68
2023-04-06T14:37:24.750Z,10.35
2023-04-06T14:39:51.268Z,11.38
2023-04-06T14:42:17.596Z,9.80
2023-04-06T14:44:46.042Z,13.18
2023-04-06T14:47:12.734Z,11.98
2023-04-06T14:49:39.122Z,11.60
2023-04-06T14:52:05.568Z,10.63
2023-04-06T14:54:31.948Z,12.57
2023-04-06T14:56:58.284Z,11.77
2023-04-06T14:59:24.699Z,9.45
2023-04-06T15:01:52.194Z,10.23
2023-04-06T15:04:18.810Z,10.55
2023-04-06T15:06:45.252Z,15.32
2023-04-06T15:09:11.565Z,11.57
2023-04-06T15:11:38.604Z,10.23
2023-04-06T15:14:05.179Z,13.15
2023-04-06T15:16:33.300Z,9.90
2023-04-06T15:19:01.196Z,11.15
2023-04-06T15:21:27.892Z,12.80
2023-04-06T15:23:55.041Z,12.57
2023-04-06T15:26:22.059Z,12.50
2023-04-06T15:28:48.460Z,10.98
2023-04-06T15:33:48.691Z,10.98
2023-04-06T15:36:27.111Z,8.75
2023-04-06T15:38:53.707Z,12.10
2023-04-06T15:41:20.895Z,12.98
2023-04-06T15:43:47.522Z,11.25
2023-04-06T15:46:14.052Z,10.07
2023-04-06T15:48:41.717Z,11.73
2023-04-06T15:51:08.286Z,11.90
2023-04-06T15:53:35.767Z,10.80
2023-04-06T15:56:05.283Z,10.95
2023-04-06T15:58:33.352Z,9.15
2023-04-06T16:00:59.709Z,10.98
2023-04-06T16:03:26.289Z,12.13
2023-04-06T16:06:04.648Z,9.07
2023-04-06T16:08:34.683Z,9.75
2023-04-06T16:11:01.592Z,13.68
2023-04-06T16:13:28.080Z,11.98
2023-04-06T16:15:54.455Z,12.15
2023-04-06T16:18:20.973Z,14.38
2023-04-06T16:20:47.416Z,12.23
2023-04-06T16:23:13.777Z,10.75
2023-04-06T16:25:40.264Z,12.32
2023-04-06T16:28:07.138Z,11.70
2023-04-06T16:30:37.529Z,19.33
2023-04-06T16:33:03.992Z,12.47
2023-04-06T16:35:30.488Z,11.27
2023-04-06T16:37:56.845Z,10.05
2023-04-06T16:40:23.235Z,12.10
2023-04-06T16:42:49.661Z,11.88
2023-04-06T16:45:16.599Z,13.55
2023-04-06T16:47:43.245Z,10.52
2023-04-06T16:50:10.584Z,10.63
2023-04-06T16:52:37.161Z,11.90
2023-04-06T16:55:03.805Z,12.63
2023-04-06T16:57:30.254Z,12.05
2023-04-06T16:59:56.658Z,13.65
2023-04-06T17:02:26.370Z,14.00
2023-04-06T17:04:52.949Z,10.80
2023-04-06T17:07:21.604Z,12.18
2023-04-06T17:09:49.055Z,16.58
2023-04-06T17:12:15.464Z,10.48
2023-04-06T17:14:41.879Z,12.43
2023-04-06T17:17:08.433Z,13.50
2023-04-06T17:19:34.954Z,11.32
2023-04-06T17:22:01.371Z,12.50
2023-04-06T17:24:27.842Z,10.20
2023-04-06T17:26:54.298Z,13.98
2023-04-06T17:29:20.640Z,12.07
2023-04-06T17:31:47.005Z,13.50
2023-04-06T17:34:13.400Z,14.88
2023-04-06T17:36:39.879Z,12.18
2023-04-06T17:39:06.508Z,8.30
2023-04-06T17:41:34.322Z,9.02
2023-04-06T17:44:01.179Z,14.68
2023-04-06T17:46:27.637Z,12.65
2023-04-06T17:48:54.075Z,12.10
2023-04-06T17:51:21.325Z,11.88
2023-04-06T17:53:48.198Z,13.77
2023-04-06T17:56:14.882Z,13.55
2023-04-06T17:58:41.327Z,13.55
2023-04-06T18:01:09.116Z,14.45
2023-04-06T18:03:35.822Z,14.73
2023-04-06T18:06:16.385Z,12.70
2023-04-06T18:08:43.115Z,7.78
2023-04-06T18:11:21.475Z,13.15
2023-04-06T18:13:48.096Z,11.02
2023-04-06T18:16:16.193Z,12.82
2023-04-06T18:18:42.907Z,14.02
2023-04-06T18:21:09.331Z,12.43
2023-04-06T18:23:37.202Z,13.32
2023-04-06T18:26:04.956Z,12.82
2023-04-06T18:28:31.622Z,13.07
2023-04-06T18:30:59.564Z,10.30
2023-04-06T18:33:29.775Z,10.18
2023-04-06T18:35:59.851Z,11.57
2023-04-06T18:38:26.245Z,10.20
2023-04-06T18:40:52.964Z,7.63
2023-04-06T18:43:19.273Z,12.10
2023-04-06T18:45:45.896Z,12.98
2023-04-06T18:48:13.552Z,11.13
2023-04-06T18:50:40.305Z,11.07
2023-04-06T18:53:06.783Z,9.63
2023-04-06T18:55:33.493Z,5.97
2023-04-06T18:58:00.439Z,9.68
2023-04-06T19:00:27.016Z,11.10
2023-04-06T19:02:53.641Z,15.05
2023-04-06T19:05:22.009Z,12.73
2023-04-06T19:07:52.042Z,13.93
2023-04-06T19:10:19.091Z,13.25
2023-04-06T19:12:45.931Z,12.73
2023-04-06T19:15:12.454Z,13.32
2023-04-06T19:17:39.247Z,14.10
2023-04-06T19:20:06.510Z,12.20
2023-04-06T19:22:38.848Z,14.18
2023-04-06T19:25:06.400Z,14.38
2023-04-06T19:27:32.742Z,11.77
2023-04-06T19:30:00.207Z,13.95
2023-04-06T19:32:26.998Z,13.43
2023-04-06T19:34:53.679Z,12.82
2023-04-06T19:37:20.149Z,12.40
2023-04-06T19:39:47.595Z,14.18
2023-04-06T19:42:15.505Z,15.20
2023-04-06T19:44:42.000Z,14.40
2023-04-06T19:47:08.340Z,12.70
2023-04-06T19:49:34.712Z,14.93
2023-04-06T19:52:01.053Z,13.30
2023-04-06T19:54:27.587Z,12.70
2023-04-06T19:56:54.013Z,15.18
2023-04-06T19:59:21.285Z,13.02
2023-04-06T20:01:47.719Z,12.52
2023-04-06T20:04:14.290Z,11.85
2023-04-06T20:06:40.964Z,11.30
2023-04-06T20:09:07.449Z,14.20
2023-04-06T20:11:35.858Z,12.73
2023-04-06T20:14:02.300Z,9.75
2023-04-06T20:16:28.764Z,11.88
2023-04-06T20:18:55.289Z,8.57
2023-04-06T20:21:21.806Z,11.40
2023-04-06T20:23:48.396Z,10.65
2023-04-06T20:26:14.745Z,13.32
2023-04-06T20:28:41.259Z,9.88
2023-04-06T20:31:07.970Z,12.90
2023-04-06T20:33:35.400Z,6.45
2023-04-06T20:36:02.180Z,10.77
2023-04-06T20:40:59.759Z,13.05
2023-04-06T20:43:28.557Z,12.57
2023-04-06T20:45:59.550Z,10.82
2023-04-06T20:48:26.077Z,10.27
2023-04-06T20:50:52.997Z,11.50
2023-04-06T20:53:20.724Z,9.40
2023-04-06T20:55:47.446Z,10.73
2023-04-06T20:58:15.993Z,11.75
2023-04-06T21:00:42.479Z,10.95
2023-04-06T21:03:09.180Z,11.55
2023-04-06T21:05:35.994Z,9.32
2023-04-06T21:08:02.507Z,13.00
2023-04-06T21:10:28.849Z,12.35
2023-04-06T21:12:55.233Z,12.05
2023-04-06T21:15:22.549Z,10.15
2023-04-06T21:17:48.966Z,11.45
2023-04-06T21:20:15.608Z,12.68
2023-04-06T21:22:42.016Z,11.30
2023-04-06T21:25:08.866Z,11.00
2023-04-06T21:27:35.531Z,11.13
2023-04-06T21:30:02.004Z,13.80
2023-04-06T21:32:28.526Z,13.68
2023-04-06T21:34:54.930Z,13.23
2023-04-06T21:37:21.413Z,12.57
2023-04-06T21:39:48.009Z,8.88
2023-04-06T21:42:14.528Z,12.95
2023-04-06T21:44:41.012Z,11.85
2023-04-06T21:47:07.449Z,12.77
2023-04-06T21:49:34.009Z,13.13
2023-04-06T21:52:00.507Z,14.30
2023-04-06T21:54:32.646Z,12.00
2023-04-06T21:56:59.034Z,14.70
2023-04-06T21:59:29.091Z,14.68
2023-04-06T22:01:56.912Z,15.23
2023-04-06T22:04:24.099Z,16.30
2023-04-06T22:06:50.830Z,16.23
2023-04-06T22:09:17.372Z,14.65
2023-04-06T22:11:43.723Z,16.80
2023-04-06T22:14:10.573Z,15.38
2023-04-06T22:16:37.060Z,16.02
2023-04-06T22:19:03.493Z,15.57
2023-04-06T22:21:30.660Z,18.40
2023-04-06T22:23:57.140Z,17.08
2023-04-06T22:26:23.591Z,15.30
2023-04-06T22:28:49.891Z,15.95
2023-04-06T22:31:16.258Z,17.35
2023-04-06T22:33:42.580Z,17.88
2023-04-06T22:36:09.491Z,18.15
2023-04-06T22:38:35.819Z,19.08
2023-04-06T22:41:02.176Z,18.23
2023-04-06T22:43:28.513Z,20.33
2023-04-06T22:45:54.875Z,19.58
2023-04-06T22:48:21.363Z,18.52
2023-04-06T22:50:47.753Z,21.38
2023-04-06T22:53:14.055Z,18.83
2023-04-06T22:55:43.450Z,19.25
2023-04-06T22:58:09.786Z,21.52
2023-04-06T23:00:36.152Z,23.08
2023-04-06T23:03:02.743Z,24.90
2023-04-06T23:05:29.157Z,20.73
2023-04-06T23:07:55.539Z,22.20
2023-04-06T23:10:21.859Z,23.92
2023-04-06T23:12:48.333Z,20.80
2023-04-06T23:15:14.764Z,22.10
2023-04-06T23:17:41.240Z,22.52
2023-04-06T23:20:07.935Z,22.95
2023-04-06T23:22:34.277Z,21.85
2023-04-06T23:25:00.663Z,25.73
2023-04-06T23:27:27.009Z,25.50
2023-04-06T23:29:54.114Z,22.08
2023-04-06T23:32:20.518Z,24.70
2023-04-06T23:34:46.833Z,23.70
2023-04-06T23:37:13.228Z,27.75
2023-04-06T23:39:39.525Z,25.50
2023-04-06T23:42:05.862Z,27.33
2023-04-06T23:44:32.146Z,23.17
2023-04-06T23:46:58.714Z,29.00
2023-04-06T23:49:25.090Z,28.23
2023-04-06T23:51:51.398Z,25.23
2023-04-06T23:54:17.727Z,30.88
2023-04-06T23:56:44.120Z,29.83
2023-04-06T23:59:10.467Z,32.90
